createdAt,value
2022-10-09T00:00:07.017Z,40.1920
2022-10-09T00:00:18.080Z,40.1980
2022-10-09T00:00:29.153Z,40.1810
2022-10-09T00:00:40.219Z,40.1870
2022-10-09T00:00:51.268Z,40.1540
2022-10-09T00:01:02.308Z,40.1360
2022-10-09T00:01:13.397Z,40.1250
2022-10-09T00:01:24.552Z,40.1250
2022-10-09T00:01:35.620Z,40.1070
2022-10-09T00:01:46.668Z,40.0900
2022-10-09T00:01:57.739Z,40.1190
2022-10-09T00:02:08.819Z,40.1360
2022-10-09T00:02:19.940Z,40.1040
2022-10-09T00:02:31.062Z,40.0920
2022-10-09T00:02:42.158Z,40.0920
2022-10-09T00:02:53.183Z,40.0810
2022-10-09T00:03:04.229Z,40.0860
2022-10-09T00:03:15.311Z,40.0750
2022-10-09T00:03:26.358Z,40.0390
2022-10-09T00:03:37.424Z,40.0390
2022-10-09T00:03:48.504Z,40.0920
2022-10-09T00:03:59.585Z,40.0810
2022-10-09T00:04:10.630Z,40.0750
2022-10-09T00:04:21.674Z,40.0580
2022-10-09T00:04:32.749Z,40.0390
2022-10-09T00:04:43.819Z,40.0520
2022-10-09T00:04:54.898Z,40.0690
2022-10-09T00:05:06.077Z,40.0750
2022-10-09T00:05:17.177Z,40.0540
2022-10-09T00:05:28.324Z,40.0130
2022-10-09T00:05:39.389Z,39.9830
2022-10-09T00:05:50.429Z,40.0070
2022-10-09T00:06:01.498Z,40.0360
2022-10-09T00:06:12.589Z,40.0190
2022-10-09T00:06:23.658Z,39.9830
2022-10-09T00:06:34.809Z,39.9530
2022-10-09T00:06:45.869Z,39.9300
2022-10-09T00:06:56.940Z,39.9180
2022-10-09T00:07:08.009Z,39.8940
2022-10-09T00:07:19.069Z,39.9120
2022-10-09T00:07:30.128Z,39.9310
2022-10-09T00:07:41.189Z,39.9210
2022-10-09T00:07:52.239Z,39.8980
2022-10-09T00:08:03.309Z,39.8750
2022-10-09T00:08:14.370Z,39.8390
2022-10-09T00:08:25.436Z,39.8330
2022-10-09T00:08:36.500Z,39.8440
2022-10-09T00:08:47.561Z,39.8680
2022-10-09T00:08:58.609Z,39.8870
2022-10-09T00:09:09.669Z,39.8980
2022-10-09T00:09:20.749Z,39.8870
2022-10-09T00:09:31.810Z,39.8870
2022-10-09T00:09:42.881Z,39.9390
2022-10-09T00:09:53.940Z,39.9160
2022-10-09T00:10:05.008Z,39.8810
2022-10-09T00:10:16.069Z,39.8920
2022-10-09T00:10:27.128Z,39.8680
2022-10-09T00:10:38.189Z,39.8680
2022-10-09T00:10:49.248Z,39.8440
2022-10-09T00:11:00.344Z,39.8390
2022-10-09T00:11:11.379Z,39.8220
2022-10-09T00:11:22.429Z,39.8220
2022-10-09T00:11:33.495Z,39.8040
2022-10-09T00:11:44.578Z,39.8220
2022-10-09T00:11:55.628Z,39.8220
2022-10-09T00:12:06.689Z,39.8290
2022-10-09T00:12:17.749Z,39.8290
2022-10-09T00:12:28.810Z,39.8060
2022-10-09T00:12:39.868Z,39.7830
2022-10-09T00:12:51.309Z,39.7410
2022-10-09T00:13:02.551Z,39.7710
2022-10-09T00:13:13.625Z,39.7600
2022-10-09T00:13:24.690Z,39.7710
2022-10-09T00:13:35.758Z,39.7710
2022-10-09T00:13:46.799Z,39.7890
2022-10-09T00:13:57.871Z,39.7660
2022-10-09T00:14:08.939Z,39.7660
2022-10-09T00:14:20.054Z,39.7560
2022-10-09T00:14:31.102Z,39.7510
2022-10-09T00:14:42.158Z,39.7740
2022-10-09T00:14:53.237Z,39.7560
2022-10-09T00:15:04.300Z,39.7450
2022-10-09T00:15:15.369Z,39.7560
2022-10-09T00:15:26.438Z,39.7680
2022-10-09T00:15:37.499Z,39.7740
2022-10-09T00:15:48.562Z,39.7620
2022-10-09T00:15:59.658Z,39.7510
2022-10-09T00:16:10.718Z,39.7620
2022-10-09T00:16:21.817Z,39.7680
2022-10-09T00:16:33.171Z,39.7680
2022-10-09T00:16:44.359Z,39.7280
2022-10-09T00:16:55.487Z,39.7160
2022-10-09T00:17:06.601Z,39.6920
2022-10-09T00:17:17.669Z,39.7050
2022-10-09T00:17:28.749Z,39.6990
2022-10-09T00:17:39.777Z,39.7280
2022-10-09T00:17:50.829Z,39.6990
2022-10-09T00:18:01.903Z,39.6800
2022-10-09T00:18:12.948Z,39.6920
2022-10-09T00:18:24.019Z,39.7050
2022-10-09T00:18:35.089Z,39.7160
2022-10-09T00:18:46.168Z,39.7340
2022-10-09T00:18:57.241Z,39.6990
2022-10-09T00:19:08.308Z,39.6990
2022-10-09T00:19:19.373Z,39.6920
2022-10-09T00:19:30.439Z,39.6740
2022-10-09T00:19:41.530Z,39.6740
2022-10-09T00:19:52.597Z,39.6800
2022-10-09T00:20:03.660Z,39.6800
2022-10-09T00:20:14.721Z,39.6740
2022-10-09T00:20:25.758Z,39.7110
2022-10-09T00:20:36.828Z,39.7220
2022-10-09T00:20:47.892Z,39.6920
2022-10-09T00:20:58.928Z,39.6680
2022-10-09T00:21:09.999Z,39.6570
2022-10-09T00:21:21.072Z,39.6570
2022-10-09T00:21:32.139Z,39.6800
2022-10-09T00:21:43.199Z,39.6860
2022-10-09T00:21:54.259Z,39.6510
2022-10-09T00:22:05.339Z,39.6400
2022-10-09T00:22:16.430Z,39.6400
2022-10-09T00:22:27.508Z,39.6800
2022-10-09T00:22:38.586Z,39.6680
2022-10-09T00:22:50.074Z,39.6220
2022-10-09T00:23:01.598Z,39.6400
2022-10-09T00:23:12.668Z,39.6280
2022-10-09T00:23:23.738Z,39.6340
2022-10-09T00:23:34.800Z,39.6400
2022-10-09T00:23:45.859Z,39.6570
2022-10-09T00:23:56.911Z,39.6630
2022-10-09T00:24:07.982Z,39.6090
2022-10-09T00:24:19.055Z,39.5800
2022-10-09T00:24:30.100Z,39.5570
2022-10-09T00:24:41.168Z,39.5450
2022-10-09T00:24:52.216Z,39.5800
2022-10-09T00:25:03.291Z,39.5630
2022-10-09T00:25:14.348Z,39.5570
2022-10-09T00:25:25.408Z,39.5210
2022-10-09T00:25:36.478Z,39.5150
2022-10-09T00:25:47.539Z,39.5150
2022-10-09T00:25:58.589Z,39.5260
2022-10-09T00:26:09.674Z,39.5190
2022-10-09T00:26:20.708Z,39.4880
2022-10-09T00:26:31.758Z,39.4880
2022-10-09T00:26:42.831Z,39.4820
2022-10-09T00:26:53.869Z,39.4710
2022-10-09T00:27:04.928Z,39.5240
2022-10-09T00:27:16.000Z,39.5130
2022-10-09T00:27:27.068Z,39.4940
2022-10-09T00:27:38.139Z,39.4860
2022-10-09T00:27:49.229Z,39.4920
2022-10-09T00:28:00.289Z,39.5320
2022-10-09T00:28:11.405Z,39.5630
2022-10-09T00:28:22.531Z,39.5210
2022-10-09T00:28:38.314Z,39.5570
2022-10-09T00:28:50.793Z,39.7160
2022-10-09T00:29:01.884Z,39.6220
2022-10-09T00:29:12.939Z,39.5370
2022-10-09T00:29:23.990Z,39.5020
2022-10-09T00:29:35.049Z,39.4960
2022-10-09T00:29:46.109Z,39.4960
2022-10-09T00:29:57.182Z,39.5190
2022-10-09T00:30:08.238Z,39.5020
2022-10-09T00:30:19.310Z,39.4960
2022-10-09T00:30:30.407Z,39.4960
2022-10-09T00:30:41.509Z,39.5080
2022-10-09T00:30:52.645Z,39.5250
2022-10-09T00:31:03.743Z,39.5310
2022-10-09T00:31:14.866Z,39.5310
2022-10-09T00:31:25.881Z,39.5250
2022-10-09T00:31:36.949Z,39.5190
2022-10-09T00:31:47.999Z,39.5100
2022-10-09T00:31:59.058Z,39.4920
2022-10-09T00:32:10.118Z,39.4690
2022-10-09T00:32:21.220Z,39.4750
2022-10-09T00:32:32.293Z,39.4440
2022-10-09T00:32:43.379Z,39.4380
2022-10-09T00:32:54.429Z,39.4860
2022-10-09T00:33:05.489Z,39.5210
2022-10-09T00:33:16.559Z,39.5150
2022-10-09T00:33:27.622Z,39.4690
2022-10-09T00:33:38.670Z,39.4570
2022-10-09T00:33:49.711Z,39.4270
2022-10-09T00:34:00.758Z,39.4380
2022-10-09T00:34:11.819Z,39.4330
2022-10-09T00:34:22.890Z,39.4160
2022-10-09T00:34:33.956Z,39.3750
2022-10-09T00:34:45.027Z,39.3980
2022-10-09T00:34:56.088Z,39.4040
2022-10-09T00:35:07.179Z,39.4220
2022-10-09T00:35:18.228Z,39.4370
2022-10-09T00:35:29.288Z,39.4480
2022-10-09T00:35:40.349Z,39.4480
2022-10-09T00:35:51.411Z,39.4480
2022-10-09T00:36:02.485Z,39.4260
2022-10-09T00:36:13.550Z,39.4600
2022-10-09T00:36:24.609Z,39.4370
2022-10-09T00:36:35.679Z,39.4370
2022-10-09T00:36:46.738Z,39.4080
2022-10-09T00:36:57.801Z,39.4310
2022-10-09T00:37:08.858Z,39.4260
2022-10-09T00:37:19.899Z,39.4310
2022-10-09T00:37:30.980Z,39.4080
2022-10-09T00:37:42.030Z,39.4390
2022-10-09T00:37:53.068Z,39.4220
2022-10-09T00:38:04.139Z,39.3980
2022-10-09T00:38:15.198Z,39.3930
2022-10-09T00:38:26.258Z,39.3750
2022-10-09T00:38:37.318Z,39.3870
2022-10-09T00:38:48.392Z,39.3810
2022-10-09T00:38:59.419Z,39.3750
2022-10-09T00:39:10.489Z,39.3280
2022-10-09T00:39:21.558Z,39.3050
2022-10-09T00:39:32.596Z,39.3390
2022-10-09T00:39:43.659Z,39.3640
2022-10-09T00:39:54.728Z,39.3810
2022-10-09T00:40:05.779Z,39.3700
2022-10-09T00:40:16.839Z,39.3510
2022-10-09T00:40:27.895Z,39.3750
2022-10-09T00:40:38.966Z,39.3810
2022-10-09T00:40:50.011Z,39.3810
2022-10-09T00:41:01.068Z,39.3750
2022-10-09T00:41:12.109Z,39.3510
2022-10-09T00:41:23.210Z,39.3550
2022-10-09T00:41:34.271Z,39.3550
2022-10-09T00:41:45.342Z,39.3010
2022-10-09T00:41:56.403Z,39.2960
2022-10-09T00:42:07.469Z,39.3070
2022-10-09T00:42:18.552Z,39.3260
2022-10-09T00:42:29.619Z,39.3430
2022-10-09T00:42:40.708Z,39.3400
2022-10-09T00:42:51.903Z,39.3590
2022-10-09T00:43:03.028Z,39.3820
2022-10-09T00:43:14.099Z,39.3930
2022-10-09T00:43:25.177Z,39.4100
2022-10-09T00:43:36.248Z,39.4100
2022-10-09T00:43:47.309Z,39.3820
2022-10-09T00:43:58.381Z,39.3930
2022-10-09T00:44:09.478Z,39.4080
2022-10-09T00:44:20.542Z,39.4080
2022-10-09T00:44:31.598Z,39.3890
2022-10-09T00:44:42.669Z,39.3550
2022-10-09T00:44:53.728Z,39.3890
2022-10-09T00:45:04.798Z,39.4140
2022-10-09T00:45:15.860Z,39.3840
2022-10-09T00:45:26.918Z,39.3550
2022-10-09T00:45:37.982Z,39.3610
2022-10-09T00:45:49.117Z,39.3490
2022-10-09T00:46:00.257Z,39.3610
2022-10-09T00:46:11.402Z,39.3430
2022-10-09T00:46:22.581Z,39.3320
2022-10-09T00:46:33.906Z,39.3320
2022-10-09T00:46:45.275Z,39.3610
2022-10-09T00:46:56.330Z,39.3320
2022-10-09T00:47:07.387Z,39.3110
2022-10-09T00:47:18.448Z,39.3280
2022-10-09T00:47:29.518Z,39.3340
2022-10-09T00:47:40.588Z,39.3320
2022-10-09T00:47:51.681Z,39.3610
2022-10-09T00:48:02.728Z,39.3460
2022-10-09T00:48:13.789Z,39.3340
2022-10-09T00:48:24.848Z,39.3110
2022-10-09T00:48:35.920Z,39.3220
2022-10-09T00:48:46.979Z,39.3170
2022-10-09T00:48:58.038Z,39.3000
2022-10-09T00:49:09.099Z,39.3050
2022-10-09T00:49:20.170Z,39.3280
2022-10-09T00:49:31.238Z,39.3050
2022-10-09T00:49:42.299Z,39.2880
2022-10-09T00:49:53.360Z,39.2880
2022-10-09T00:50:04.400Z,39.3550
2022-10-09T00:50:15.468Z,39.3140
2022-10-09T00:50:26.529Z,39.2900
2022-10-09T00:50:37.588Z,39.2960
2022-10-09T00:50:48.659Z,39.3070
2022-10-09T00:50:59.725Z,39.2780
2022-10-09T00:51:10.775Z,39.2550
2022-10-09T00:51:21.839Z,39.2380
2022-10-09T00:51:32.909Z,39.2320
2022-10-09T00:51:43.968Z,39.2250
2022-10-09T00:51:55.036Z,39.2380
2022-10-09T00:52:06.098Z,39.2550
2022-10-09T00:52:17.170Z,39.2550
2022-10-09T00:52:28.229Z,39.2500
2022-10-09T00:52:39.289Z,39.2500
2022-10-09T00:52:50.819Z,39.2500
2022-10-09T00:53:02.258Z,39.2960
2022-10-09T00:53:13.319Z,39.2610
2022-10-09T00:53:24.388Z,39.2720
2022-10-09T00:53:35.449Z,39.2610
2022-10-09T00:53:46.525Z,39.2500
2022-10-09T00:53:57.568Z,39.2190
2022-10-09T00:54:08.640Z,39.2020
2022-10-09T00:54:19.699Z,39.1960
2022-10-09T00:54:30.775Z,39.2080
2022-10-09T00:54:41.838Z,39.2190
2022-10-09T00:54:52.909Z,39.1790
2022-10-09T00:55:03.955Z,39.1620
2022-10-09T00:55:14.988Z,39.1560
2022-10-09T00:55:26.061Z,39.1620
2022-10-09T00:55:37.098Z,39.1960
2022-10-09T00:55:48.167Z,39.1960
2022-10-09T00:55:59.237Z,39.1900
2022-10-09T00:56:10.302Z,39.1730
2022-10-09T00:56:21.348Z,39.1560
2022-10-09T00:56:32.432Z,39.1620
2022-10-09T00:56:43.473Z,39.1670
2022-10-09T00:56:54.511Z,39.1790
2022-10-09T00:57:05.648Z,39.1790
2022-10-09T00:57:16.719Z,39.1730
2022-10-09T00:57:27.775Z,39.1730
2022-10-09T00:57:38.828Z,39.1790
2022-10-09T00:57:49.868Z,39.1900
2022-10-09T00:58:00.929Z,39.1960
2022-10-09T00:58:12.042Z,39.1900
2022-10-09T00:58:23.078Z,39.1730
2022-10-09T00:58:34.139Z,39.1500
2022-10-09T00:58:45.199Z,39.1310
2022-10-09T00:58:56.258Z,39.1200
2022-10-09T00:59:07.309Z,39.1140
2022-10-09T00:59:18.379Z,39.1250
2022-10-09T00:59:29.439Z,39.2020
2022-10-09T00:59:40.506Z,39.1730
2022-10-09T00:59:51.569Z,39.1790
2022-10-09T01:00:02.638Z,39.1620
2022-10-09T01:00:13.699Z,39.1670
2022-10-09T01:00:24.748Z,39.1670
2022-10-09T01:00:35.809Z,39.1640
2022-10-09T01:00:46.869Z,39.1640
2022-10-09T01:00:57.966Z,39.1230
2022-10-09T01:01:09.051Z,39.1040
2022-10-09T01:01:20.177Z,39.0930
2022-10-09T01:01:31.391Z,39.1040
2022-10-09T01:01:42.617Z,39.1170
2022-10-09T01:01:53.906Z,39.1250
2022-10-09T01:02:05.083Z,39.1430
2022-10-09T01:02:16.146Z,39.1030
2022-10-09T01:02:27.256Z,39.0910
2022-10-09T01:02:38.333Z,39.0850
2022-10-09T01:02:49.673Z,39.0740
2022-10-09T01:03:00.868Z,39.0970
2022-10-09T01:03:11.938Z,39.0850
2022-10-09T01:03:23.018Z,39.0490
2022-10-09T01:03:34.079Z,39.0430
2022-10-09T01:03:45.139Z,39.0530
2022-10-09T01:03:56.199Z,39.0820
2022-10-09T01:04:07.249Z,39.0700
2022-10-09T01:04:18.309Z,39.0590
2022-10-09T01:04:29.418Z,39.0700
2022-10-09T01:04:40.485Z,39.1030
2022-10-09T01:04:51.547Z,39.1030
2022-10-09T01:05:02.619Z,39.0800
2022-10-09T01:05:13.688Z,39.0740
2022-10-09T01:05:24.749Z,39.0380
2022-10-09T01:05:35.794Z,39.0550
2022-10-09T01:05:46.861Z,39.0680
2022-10-09T01:05:57.915Z,39.0740
2022-10-09T01:06:08.972Z,39.0740
2022-10-09T01:06:20.026Z,39.0910
2022-10-09T01:06:31.060Z,39.0850
2022-10-09T01:06:42.132Z,39.0490
2022-10-09T01:06:53.200Z,39.0380
2022-10-09T01:07:04.261Z,39.0430
2022-10-09T01:07:15.311Z,39.0850
2022-10-09T01:07:26.368Z,39.0800
2022-10-09T01:07:37.434Z,39.0550
2022-10-09T01:07:48.491Z,39.0150
2022-10-09T01:07:59.553Z,39.0150
2022-10-09T01:08:10.612Z,39.0380
2022-10-09T01:08:21.681Z,39.0200
2022-10-09T01:08:32.779Z,39.0090
2022-10-09T01:08:43.862Z,39.0260
2022-10-09T01:08:54.908Z,39.0380
2022-10-09T01:09:05.968Z,39.0490
2022-10-09T01:09:17.029Z,39.0550
2022-10-09T01:09:28.149Z,39.0430
2022-10-09T01:09:39.239Z,39.0550
2022-10-09T01:09:50.298Z,39.1010
2022-10-09T01:10:01.351Z,39.1140
2022-10-09T01:10:12.409Z,39.1240
2022-10-09T01:10:23.468Z,39.1240
2022-10-09T01:10:34.534Z,39.1410
2022-10-09T01:10:45.599Z,39.1300
2022-10-09T01:10:56.658Z,39.1350
2022-10-09T01:11:07.708Z,39.1300
2022-10-09T01:11:18.769Z,39.1070
2022-10-09T01:11:29.828Z,39.1350
2022-10-09T01:11:40.932Z,39.1410
2022-10-09T01:11:51.969Z,39.1590
2022-10-09T01:12:03.029Z,39.1350
2022-10-09T01:12:14.084Z,39.1470
2022-10-09T01:12:25.156Z,39.1240
2022-10-09T01:12:36.229Z,39.1180
2022-10-09T01:12:47.699Z,39.1180
2022-10-09T01:12:59.029Z,39.1350
2022-10-09T01:13:10.098Z,39.1090
2022-10-09T01:13:21.145Z,39.0900
2022-10-09T01:13:32.198Z,39.1010
2022-10-09T01:13:43.288Z,39.0950
2022-10-09T01:13:54.349Z,39.0750
2022-10-09T01:14:05.412Z,39.0920
2022-10-09T01:14:16.479Z,39.0860
2022-10-09T01:14:27.539Z,39.1040
2022-10-09T01:14:38.609Z,39.1210
2022-10-09T01:14:49.661Z,39.1010
2022-10-09T01:15:00.719Z,39.1010
2022-10-09T01:15:11.796Z,39.0760
2022-10-09T01:15:22.859Z,39.0420
2022-10-09T01:15:33.969Z,39.0480
2022-10-09T01:15:45.126Z,39.0420
2022-10-09T01:15:56.302Z,39.0480
2022-10-09T01:16:07.412Z,39.0360
2022-10-09T01:16:23.522Z,39.0360
2022-10-09T01:16:35.419Z,39.2290
2022-10-09T01:16:46.468Z,39.1740
2022-10-09T01:16:57.530Z,39.0810
2022-10-09T01:17:08.589Z,39.0420
2022-10-09T01:17:19.661Z,39.0250
2022-10-09T01:17:30.733Z,39.0080
2022-10-09T01:17:41.800Z,39.0080
2022-10-09T01:17:52.849Z,39.0080
2022-10-09T01:18:03.918Z,39.0130
2022-10-09T01:18:14.978Z,39.0250
2022-10-09T01:18:26.028Z,39.0190
2022-10-09T01:18:37.088Z,39.0250
2022-10-09T01:18:48.168Z,38.9830
2022-10-09T01:18:59.228Z,38.9720
2022-10-09T01:19:10.278Z,38.9540
2022-10-09T01:19:21.342Z,38.9480
2022-10-09T01:19:32.399Z,38.9370
2022-10-09T01:19:43.468Z,38.9660
2022-10-09T01:19:54.538Z,39.0000
2022-10-09T01:20:05.598Z,39.0250
2022-10-09T01:20:16.669Z,39.0190
2022-10-09T01:20:27.718Z,39.0190
2022-10-09T01:20:38.779Z,38.9890
2022-10-09T01:20:49.828Z,38.9980
2022-10-09T01:21:00.908Z,38.9750
2022-10-09T01:21:11.988Z,38.9980
2022-10-09T01:21:23.039Z,38.9690
2022-10-09T01:21:34.098Z,38.9500
2022-10-09T01:21:45.160Z,38.9160
2022-10-09T01:21:56.222Z,38.9390
2022-10-09T01:22:07.280Z,38.9450
2022-10-09T01:22:18.347Z,38.9430
2022-10-09T01:22:29.408Z,38.9600
2022-10-09T01:22:40.448Z,38.9600
2022-10-09T01:22:51.829Z,38.9540
2022-10-09T01:23:03.188Z,38.9830
2022-10-09T01:23:14.247Z,38.9600
2022-10-09T01:23:25.300Z,38.9260
2022-10-09T01:23:36.428Z,38.9070
2022-10-09T01:23:47.497Z,38.9070
2022-10-09T01:23:58.585Z,38.9070
2022-10-09T01:24:09.638Z,38.9070
2022-10-09T01:24:20.713Z,38.9070
2022-10-09T01:24:31.789Z,38.9430
2022-10-09T01:24:42.851Z,38.9540
2022-10-09T01:24:53.888Z,38.9180
2022-10-09T01:25:04.954Z,38.9070
2022-10-09T01:25:16.010Z,38.9130
2022-10-09T01:25:27.079Z,38.9370
2022-10-09T01:25:38.138Z,38.9660
2022-10-09T01:25:49.208Z,38.9750
2022-10-09T01:26:00.299Z,38.9810
2022-10-09T01:26:11.359Z,38.9750
2022-10-09T01:26:22.418Z,38.9510
2022-10-09T01:26:33.589Z,38.9580
2022-10-09T01:26:44.671Z,38.9510
2022-10-09T01:26:55.719Z,38.9450
2022-10-09T01:27:06.780Z,38.9640
2022-10-09T01:27:17.839Z,38.9510
2022-10-09T01:27:28.913Z,38.9390
2022-10-09T01:27:39.954Z,38.9280
2022-10-09T01:27:51.023Z,38.9160
2022-10-09T01:28:02.123Z,38.9340
2022-10-09T01:28:13.258Z,38.9390
2022-10-09T01:28:24.369Z,38.9280
2022-10-09T01:28:35.540Z,38.9220
2022-10-09T01:28:46.730Z,38.9220
2022-10-09T01:28:57.788Z,38.9390
2022-10-09T01:29:08.870Z,38.9340
2022-10-09T01:29:19.929Z,38.9280
2022-10-09T01:29:30.990Z,38.9050
2022-10-09T01:29:42.058Z,38.9130
2022-10-09T01:29:53.119Z,38.9010
2022-10-09T01:30:04.195Z,38.9070
2022-10-09T01:30:15.249Z,38.9130
2022-10-09T01:30:26.318Z,38.9070
2022-10-09T01:30:37.454Z,38.8840
2022-10-09T01:30:48.554Z,38.8720
2022-10-09T01:30:59.693Z,38.8890
2022-10-09T01:31:10.892Z,38.8840
2022-10-09T01:31:22.016Z,38.8780
2022-10-09T01:31:33.112Z,38.8780
2022-10-09T01:31:44.158Z,38.8610
2022-10-09T01:31:55.218Z,38.9010
2022-10-09T01:32:06.284Z,38.9070
2022-10-09T01:32:17.350Z,38.8930
2022-10-09T01:32:28.418Z,38.8570
2022-10-09T01:32:39.474Z,38.8550
2022-10-09T01:32:50.992Z,38.8610
2022-10-09T01:33:02.550Z,38.9260
2022-10-09T01:33:13.608Z,38.9070
2022-10-09T01:33:24.668Z,38.9010
2022-10-09T01:33:35.749Z,38.8780
2022-10-09T01:33:46.829Z,38.8490
2022-10-09T01:33:57.855Z,38.8550
2022-10-09T01:34:08.947Z,38.8380
2022-10-09T01:34:20.014Z,38.8250
2022-10-09T01:34:31.080Z,38.8310
2022-10-09T01:34:42.118Z,38.8380
2022-10-09T01:34:53.185Z,38.8250
2022-10-09T01:35:04.218Z,38.8020
2022-10-09T01:35:15.282Z,38.8130
2022-10-09T01:35:26.338Z,38.8310
2022-10-09T01:35:37.388Z,38.8550
2022-10-09T01:35:48.448Z,38.8670
2022-10-09T01:35:59.519Z,38.8610
2022-10-09T01:36:10.578Z,38.8760
2022-10-09T01:36:21.649Z,38.8950
2022-10-09T01:36:32.711Z,38.8950
2022-10-09T01:36:43.777Z,38.8840
2022-10-09T01:36:54.838Z,38.8720
2022-10-09T01:37:05.898Z,38.8550
2022-10-09T01:37:16.969Z,38.8610
2022-10-09T01:37:28.028Z,38.8610
2022-10-09T01:37:39.104Z,38.8690
2022-10-09T01:37:50.158Z,38.8880
2022-10-09T01:38:01.233Z,38.8880
2022-10-09T01:38:12.268Z,38.8760
2022-10-09T01:38:23.340Z,38.8880
2022-10-09T01:38:34.379Z,38.8880
2022-10-09T01:38:45.449Z,38.8760
2022-10-09T01:38:56.509Z,38.8880
2022-10-09T01:39:07.572Z,38.9050
2022-10-09T01:39:18.648Z,38.8940
2022-10-09T01:39:29.699Z,38.8820
2022-10-09T01:39:40.766Z,38.8760
2022-10-09T01:39:51.799Z,38.8520
2022-10-09T01:40:02.871Z,38.8570
2022-10-09T01:40:13.929Z,38.8520
2022-10-09T01:40:25.001Z,38.8400
2022-10-09T01:40:36.083Z,38.8290
2022-10-09T01:40:47.149Z,38.8170
2022-10-09T01:40:58.198Z,38.8230
2022-10-09T01:41:09.258Z,38.8340
2022-10-09T01:41:20.327Z,38.8520
2022-10-09T01:41:31.388Z,38.8460
2022-10-09T01:41:42.448Z,38.8690
2022-10-09T01:41:53.535Z,38.8570
2022-10-09T01:42:04.578Z,38.8230
2022-10-09T01:42:15.648Z,38.8460
2022-10-09T01:42:26.708Z,38.8340
2022-10-09T01:42:37.769Z,38.8340
2022-10-09T01:42:49.132Z,38.8520
2022-10-09T01:43:00.628Z,38.8760
2022-10-09T01:43:11.688Z,38.8290
2022-10-09T01:43:22.751Z,38.8120
2022-10-09T01:43:33.817Z,38.8000
2022-10-09T01:43:44.889Z,38.7870
2022-10-09T01:43:55.948Z,38.8000
2022-10-09T01:44:07.079Z,38.8060
2022-10-09T01:44:18.129Z,38.8060
2022-10-09T01:44:29.208Z,38.7810
2022-10-09T01:44:40.280Z,38.7620
2022-10-09T01:44:51.354Z,38.7430
2022-10-09T01:45:02.407Z,38.7310
2022-10-09T01:45:13.469Z,38.7310
2022-10-09T01:45:24.542Z,38.7140
2022-10-09T01:45:35.589Z,38.7030
2022-10-09T01:45:46.668Z,38.7260
2022-10-09T01:45:57.809Z,38.7200
2022-10-09T01:46:08.887Z,38.7100
2022-10-09T01:46:20.064Z,38.7230
2022-10-09T01:46:31.251Z,38.7050
2022-10-09T01:46:42.346Z,38.7100
2022-10-09T01:46:53.399Z,38.7400
2022-10-09T01:47:04.480Z,38.7290
2022-10-09T01:47:15.528Z,38.7200
2022-10-09T01:47:26.589Z,38.7140
2022-10-09T01:47:37.649Z,38.7080
2022-10-09T01:47:48.689Z,38.7200
2022-10-09T01:47:59.759Z,38.7200
2022-10-09T01:48:10.823Z,38.7260
2022-10-09T01:48:21.868Z,38.7560
2022-10-09T01:48:32.939Z,38.7790
2022-10-09T01:48:43.999Z,38.7790
2022-10-09T01:48:55.061Z,38.7900
2022-10-09T01:49:06.129Z,38.7810
2022-10-09T01:49:17.198Z,38.7750
2022-10-09T01:49:28.258Z,38.7750
2022-10-09T01:49:39.431Z,38.7580
2022-10-09T01:49:50.480Z,38.7640
2022-10-09T01:50:01.534Z,38.7520
2022-10-09T01:50:12.575Z,38.7640
2022-10-09T01:50:23.640Z,38.7590
2022-10-09T01:50:34.711Z,38.7760
2022-10-09T01:50:45.769Z,38.7590
2022-10-09T01:50:56.830Z,38.7700
2022-10-09T01:51:07.887Z,38.7930
2022-10-09T01:51:18.929Z,38.7720
2022-10-09T01:51:29.998Z,38.8030
2022-10-09T01:51:41.059Z,38.7910
2022-10-09T01:51:52.108Z,38.7930
2022-10-09T01:52:03.178Z,38.7610
2022-10-09T01:52:14.238Z,38.7440
2022-10-09T01:52:25.298Z,38.7590
2022-10-09T01:52:40.976Z,38.7640
2022-10-09T01:52:53.544Z,38.9310
2022-10-09T01:53:04.789Z,38.9040
2022-10-09T01:53:15.859Z,38.8640
2022-10-09T01:53:26.924Z,38.8370
2022-10-09T01:53:37.989Z,38.8140
2022-10-09T01:53:49.059Z,38.8310
2022-10-09T01:54:00.109Z,38.8410
2022-10-09T01:54:11.208Z,38.8580
2022-10-09T01:54:22.320Z,38.8410
2022-10-09T01:54:33.388Z,38.8050
2022-10-09T01:54:44.468Z,38.8200
2022-10-09T01:54:55.539Z,38.8090
2022-10-09T01:55:06.616Z,38.8030
2022-10-09T01:55:17.808Z,38.7990
2022-10-09T01:55:28.868Z,38.7990
2022-10-09T01:55:39.949Z,38.7930
2022-10-09T01:55:51.008Z,38.7580
2022-10-09T01:56:02.081Z,38.7350
2022-10-09T01:56:13.148Z,38.6820
2022-10-09T01:56:24.225Z,38.6940
2022-10-09T01:56:35.278Z,38.6880
2022-10-09T01:56:46.328Z,38.6760
2022-10-09T01:56:57.404Z,38.6650
2022-10-09T01:57:08.448Z,38.6940
2022-10-09T01:57:19.509Z,38.7070
2022-10-09T01:57:30.548Z,38.6820
2022-10-09T01:57:41.620Z,38.6650
2022-10-09T01:57:52.678Z,38.6990
2022-10-09T01:58:03.754Z,38.6820
2022-10-09T01:58:14.788Z,38.6710
2022-10-09T01:58:25.848Z,38.6650
2022-10-09T01:58:36.909Z,38.6760
2022-10-09T01:58:47.978Z,38.6650
2022-10-09T01:58:59.038Z,38.6880
2022-10-09T01:59:14.859Z,38.6760
2022-10-09T01:59:27.059Z,38.8400
2022-10-09T01:59:38.118Z,38.8030
2022-10-09T01:59:49.227Z,38.7440
2022-10-09T02:00:00.290Z,38.7270
2022-10-09T02:00:11.350Z,38.7380
2022-10-09T02:00:22.407Z,38.7170
2022-10-09T02:00:33.453Z,38.7230
2022-10-09T02:00:44.508Z,38.7350
2022-10-09T02:00:55.571Z,38.7520
2022-10-09T02:01:06.628Z,38.7400
2022-10-09T02:01:17.823Z,38.7400
2022-10-09T02:01:29.010Z,38.7670
2022-10-09T02:01:40.118Z,38.7670
2022-10-09T02:01:51.371Z,38.7610
2022-10-09T02:02:02.862Z,38.8050
2022-10-09T02:02:14.089Z,38.7990
2022-10-09T02:02:25.250Z,38.7590
2022-10-09T02:02:36.322Z,38.7530
2022-10-09T02:02:47.908Z,38.7440
2022-10-09T02:02:59.441Z,38.7780
2022-10-09T02:03:10.510Z,38.7440
2022-10-09T02:03:21.579Z,38.7170
2022-10-09T02:03:32.618Z,38.7000
2022-10-09T02:03:43.681Z,38.6820
2022-10-09T02:03:54.748Z,38.6420
2022-10-09T02:04:05.825Z,38.5940
2022-10-09T02:04:16.896Z,38.6240
2022-10-09T02:04:27.956Z,38.6410
2022-10-09T02:04:39.008Z,38.6580
2022-10-09T02:04:50.093Z,38.6410
2022-10-09T02:05:01.149Z,38.6410
2022-10-09T02:05:12.208Z,38.6560
2022-10-09T02:05:23.278Z,38.6670
2022-10-09T02:05:34.349Z,38.6670
2022-10-09T02:05:45.395Z,38.6960
2022-10-09T02:05:56.448Z,38.6790
2022-10-09T02:06:07.519Z,38.6900
2022-10-09T02:06:18.578Z,38.6730
2022-10-09T02:06:29.644Z,38.6730
2022-10-09T02:06:40.704Z,38.6830
2022-10-09T02:06:51.768Z,38.6770
2022-10-09T02:07:02.816Z,38.6710
2022-10-09T02:07:13.869Z,38.6710
2022-10-09T02:07:24.908Z,38.6600
2022-10-09T02:07:35.970Z,38.6710
2022-10-09T02:07:47.042Z,38.6600
2022-10-09T02:07:58.100Z,38.6660
2022-10-09T02:08:09.139Z,38.6530
2022-10-09T02:08:20.198Z,38.6770
2022-10-09T02:08:31.258Z,38.6710
2022-10-09T02:08:42.349Z,38.6660
2022-10-09T02:08:53.426Z,38.6830
2022-10-09T02:09:04.505Z,38.6770
2022-10-09T02:09:15.560Z,38.6600
2022-10-09T02:09:26.618Z,38.6710
2022-10-09T02:09:37.678Z,38.6710
2022-10-09T02:09:48.748Z,38.6830
2022-10-09T02:09:59.838Z,38.6790
2022-10-09T02:10:10.898Z,38.6730
2022-10-09T02:10:21.961Z,38.6850
2022-10-09T02:10:33.009Z,38.6850
2022-10-09T02:10:44.069Z,38.6730
2022-10-09T02:10:55.149Z,38.6560
2022-10-09T02:11:06.227Z,38.6560
2022-10-09T02:11:17.278Z,38.6140
2022-10-09T02:11:28.349Z,38.5970
2022-10-09T02:11:39.418Z,38.6010
2022-10-09T02:11:50.478Z,38.6130
2022-10-09T02:12:01.573Z,38.6350
2022-10-09T02:12:12.590Z,38.6740
2022-10-09T02:12:23.658Z,38.6850
2022-10-09T02:12:34.719Z,38.6790
2022-10-09T02:12:45.933Z,38.7120
2022-10-09T02:12:57.028Z,38.6530
2022-10-09T02:13:08.090Z,38.6470
2022-10-09T02:13:19.132Z,38.6530
2022-10-09T02:13:30.199Z,38.6300
2022-10-09T02:13:41.258Z,38.6390
2022-10-09T02:13:52.328Z,38.6340
2022-10-09T02:14:03.380Z,38.6340
2022-10-09T02:14:14.440Z,38.6280
2022-10-09T02:14:25.499Z,38.6280